sensor_id;sensor_type;location;lat;lon;timestamp;pressure;altitude;pressure_sealevel;temperature;humidity
5455;BME280;2750;49.050;9.250;2023-09-19T00:03:31;98325.69;;;20.80;89.09
5455;BME280;2750;49.050;9.250;2023-09-19T00:08:33;98325.88;;;20.69;89.49
5455;BME280;2750;49.050;9.250;2023-09-19T00:13:36;98329.34;;;20.70;89.85
5455;BME280;2750;49.050;9.250;2023-09-19T00:18:38;98340.06;;;20.12;92.02
5455;BME280;2750;49.050;9.250;2023-09-19T00:23:40;98353.31;;;20.39;89.96
5455;BME280;2750;49.050;9.250;2023-09-19T00:28:43;98355.75;;;20.60;89.04
5455;BME280;2750;49.050;9.250;2023-09-19T00:33:45;98366.41;;;20.68;89.08
5455;BME280;2750;49.050;9.250;2023-09-19T00:38:49;98374.34;;;20.59;89.88
5455;BME280;2750;49.050;9.250;2023-09-19T00:43:51;98383.25;;;20.58;90.55
5455;BME280;2750;49.050;9.250;2023-09-19T00:48:53;98373.59;;;20.76;89.82
5455;BME280;2750;49.050;9.250;2023-09-19T00:53:55;98382.66;;;20.64;89.78
5455;BME280;2750;49.050;9.250;2023-09-19T00:58:59;98381.91;;;20.81;89.77
5455;BME280;2750;49.050;9.250;2023-09-19T01:04:01;98369.84;;;21.15;88.45
5455;BME280;2750;49.050;9.250;2023-09-19T01:09:04;98379.03;;;21.02;88.80
5455;BME280;2750;49.050;9.250;2023-09-19T01:14:16;98377.22;;;21.02;88.41
5455;BME280;2750;49.050;9.250;2023-09-19T01:19:48;98391.47;;;21.19;87.68
5455;BME280;2750;49.050;9.250;2023-09-19T01:25:13;98396.13;;;21.34;87.61
5455;BME280;2750;49.050;9.250;2023-09-19T01:30:27;98401.53;;;21.33;87.64
5455;BME280;2750;49.050;9.250;2023-09-19T01:35:32;98409.41;;;21.42;86.95
5455;BME280;2750;49.050;9.250;2023-09-19T01:40:40;98413.91;;;21.32;87.20
5455;BME280;2750;49.050;9.250;2023-09-19T01:45:48;98413.88;;;21.15;88.51
5455;BME280;2750;49.050;9.250;2023-09-19T01:50:55;98403.69;;;20.83;88.73
5455;BME280;2750;49.050;9.250;2023-09-19T01:56:00;98421.28;;;20.55;90.10
5455;BME280;2750;49.050;9.250;2023-09-19T02:01:05;98422.16;;;20.36;90.32
5455;BME280;2750;49.050;9.250;2023-09-19T02:06:13;98424.13;;;19.96;92.01
5455;BME280;2750;49.050;9.250;2023-09-19T02:11:16;98430.63;;;19.92;91.77
5455;BME280;2750;49.050;9.250;2023-09-19T02:16:19;98431.84;;;19.59;92.82
5455;BME280;2750;49.050;9.250;2023-09-19T02:21:20;98441.13;;;19.53;93.66
5455;BME280;2750;49.050;9.250;2023-09-19T02:26:22;98442.66;;;19.75;92.56
5455;BME280;2750;49.050;9.250;2023-09-19T02:31:28;98440.75;;;19.77;92.18
5455;BME280;2750;49.050;9.250;2023-09-19T02:36:30;98451.84;;;19.31;93.89
5455;BME280;2750;49.050;9.250;2023-09-19T02:41:32;98455.34;;;19.41;94.13
5455;BME280;2750;49.050;9.250;2023-09-19T02:46:35;98449.97;;;19.52;92.87
5455;BME280;2750;49.050;9.250;2023-09-19T02:51:37;98447.16;;;19.35;92.99
5455;BME280;2750;49.050;9.250;2023-09-19T02:56:39;98452.88;;;19.09;93.56
5455;BME280;2750;49.050;9.250;2023-09-19T03:01:44;98447.28;;;19.33;92.69
5455;BME280;2750;49.050;9.250;2023-09-19T03:06:48;98463.19;;;19.72;91.75
5455;BME280;2750;49.050;9.250;2023-09-19T03:11:51;98462.88;;;19.55;91.27
5455;BME280;2750;49.050;9.250;2023-09-19T03:16:56;98465.53;;;19.65;91.44
5455;BME280;2750;49.050;9.250;2023-09-19T03:21:57;98465.38;;;19.67;91.04
5455;BME280;2750;49.050;9.250;2023-09-19T03:26:59;98475.41;;;19.92;90.23
5455;BME280;2750;49.050;9.250;2023-09-19T03:32:02;98475.28;;;20.03;90.09
5455;BME280;2750;49.050;9.250;2023-09-19T03:37:04;98476.13;;;20.32;89.35
5455;BME280;2750;49.050;9.250;2023-09-19T03:42:06;98476.81;;;20.15;89.15
5455;BME280;2750;49.050;9.250;2023-09-19T03:47:09;98479.25;;;19.69;90.79
5455;BME280;2750;49.050;9.250;2023-09-19T03:52:12;98488.66;;;19.62;91.35
5455;BME280;2750;49.050;9.250;2023-09-19T03:57:14;98491.63;;;19.87;91.79
5455;BME280;2750;49.050;9.250;2023-09-19T04:02:22;98488.13;;;19.68;91.45
5455;BME280;2750;49.050;9.250;2023-09-19T04:07:24;98491.50;;;19.39;93.00
5455;BME280;2750;49.050;9.250;2023-09-19T04:12:29;98492.09;;;19.52;92.97
5455;BME280;2750;49.050;9.250;2023-09-19T04:17:32;98490.91;;;19.76;92.38
5455;BME280;2750;49.050;9.250;2023-09-19T04:22:34;98503.22;;;19.75;92.89
5455;BME280;2750;49.050;9.250;2023-09-19T04:27:36;98502.13;;;19.68;93.05
5455;BME280;2750;49.050;9.250;2023-09-19T04:32:39;98513.53;;;19.08;94.62
5455;BME280;2750;49.050;9.250;2023-09-19T04:37:41;98521.50;;;19.27;94.61
5455;BME280;2750;49.050;9.250;2023-09-19T04:42:43;98516.06;;;19.49;93.14
5455;BME280;2750;49.050;9.250;2023-09-19T04:47:46;98524.78;;;19.20;94.35
5455;BME280;2750;49.050;9.250;2023-09-19T04:52:49;98534.28;;;19.41;93.50
5455;BME280;2750;49.050;9.250;2023-09-19T04:57:51;98541.34;;;19.41;93.14
5455;BME280;2750;49.050;9.250;2023-09-19T05:02:57;98542.84;;;19.54;92.79
5455;BME280;2750;49.050;9.250;2023-09-19T05:07:58;98544.69;;;19.73;92.21
5455;BME280;2750;49.050;9.250;2023-09-19T05:13:00;98546.66;;;19.81;91.54
5455;BME280;2750;49.050;9.250;2023-09-19T05:18:03;98551.97;;;20.10;91.13
5455;BME280;2750;49.050;9.250;2023-09-19T05:23:07;98556.53;;;20.17;90.43
5455;BME280;2750;49.050;9.250;2023-09-19T05:28:12;98556.97;;;20.22;90.07
5455;BME280;2750;49.050;9.250;2023-09-19T05:33:16;98566.25;;;19.58;92.36
5455;BME280;2750;49.050;9.250;2023-09-19T05:38:18;98576.41;;;19.41;93.46
5455;BME280;2750;49.050;9.250;2023-09-19T05:43:20;98578.69;;;19.55;93.70
5455;BME280;2750;49.050;9.250;2023-09-19T05:48:23;98597.97;;;19.96;92.77
5455;BME280;2750;49.050;9.250;2023-09-19T05:53:25;98596.84;;;19.89;93.27
5455;BME280;2750;49.050;9.250;2023-09-19T05:58:27;98596.88;;;19.98;92.76
5455;BME280;2750;49.050;9.250;2023-09-19T06:03:30;98587.91;;;19.71;93.62
5455;BME280;2750;49.050;9.250;2023-09-19T06:08:32;98620.31;;;19.62;93.06
5455;BME280;2750;49.050;9.250;2023-09-19T06:13:33;98609.59;;;19.84;91.15
5455;BME280;2750;49.050;9.250;2023-09-19T06:18:37;98610.53;;;19.73;91.78
5455;BME280;2750;49.050;9.250;2023-09-19T06:23:38;98621.84;;;20.04;90.79
5455;BME280;2750;49.050;9.250;2023-09-19T06:28:41;98627.25;;;20.02;90.61
5455;BME280;2750;49.050;9.250;2023-09-19T06:33:44;98627.16;;;19.74;91.72
5455;BME280;2750;49.050;9.250;2023-09-19T06:38:46;98633.81;;;19.78;90.56
5455;BME280;2750;49.050;9.250;2023-09-19T06:43:48;98619.25;;;19.74;91.13
5455;BME280;2750;49.050;9.250;2023-09-19T06:48:54;98636.81;;;20.03;89.25
5455;BME280;2750;49.050;9.250;2023-09-19T06:53:55;98643.84;;;20.33;88.59
5455;BME280;2750;49.050;9.250;2023-09-19T06:58:58;98635.56;;;20.57;86.60
5455;BME280;2750;49.050;9.250;2023-09-19T07:04:02;98645.13;;;21.06;84.44
5455;BME280;2750;49.050;9.250;2023-09-19T07:09:04;98649.31;;;21.18;82.70
5455;BME280;2750;49.050;9.250;2023-09-19T07:14:06;98652.50;;;20.93;82.56
5455;BME280;2750;49.050;9.250;2023-09-19T07:19:09;98657.78;;;20.64;82.02
5455;BME280;2750;49.050;9.250;2023-09-19T07:24:11;98674.16;;;20.18;83.21
5455;BME280;2750;49.050;9.250;2023-09-19T07:29:13;98691.59;;;20.00;84.03
5455;BME280;2750;49.050;9.250;2023-09-19T07:34:16;98696.06;;;19.79;84.03
5455;BME280;2750;49.050;9.250;2023-09-19T07:39:18;98697.34;;;20.24;82.41
5455;BME280;2750;49.050;9.250;2023-09-19T07:44:20;98695.75;;;20.33;81.17
5455;BME280;2750;49.050;9.250;2023-09-19T07:49:23;98713.22;;;21.12;79.92
5455;BME280;2750;49.050;9.250;2023-09-19T07:54:24;98711.94;;;21.35;78.36
5455;BME280;2750;49.050;9.250;2023-09-19T07:59:26;98722.38;;;20.98;79.66
5455;BME280;2750;49.050;9.250;2023-09-19T08:04:29;98716.16;;;21.19;78.49
5455;BME280;2750;49.050;9.250;2023-09-19T08:09:33;98724.94;;;21.95;76.61
5455;BME280;2750;49.050;9.250;2023-09-19T08:14:39;98732.25;;;21.44;77.59
5455;BME280;2750;49.050;9.250;2023-09-19T08:19:43;98721.78;;;21.72;77.04
5455;BME280;2750;49.050;9.250;2023-09-19T08:24:46;98727.19;;;21.80;75.46
5455;BME280;2750;49.050;9.250;2023-09-19T08:29:48;98726.34;;;21.70;74.94
5455;BME280;2750;49.050;9.250;2023-09-19T08:34:53;98730.47;;;22.38;73.36
5455;BME280;2750;49.050;9.250;2023-09-19T08:39:54;98743.25;;;22.15;72.72
5455;BME280;2750;49.050;9.250;2023-09-19T08:50:04;98744.19;;;22.96;70.85
5455;BME280;2750;49.050;9.250;2023-09-19T08:55:13;98745.03;;;23.32;70.07
5455;BME280;2750;49.050;9.250;2023-09-19T09:00:22;98749.38;;;22.06;71.48
5455;BME280;2750;49.050;9.250;2023-09-19T09:05:27;98747.38;;;21.62;73.48
5455;BME280;2750;49.050;9.250;2023-09-19T09:10:30;98761.41;;;21.43;74.76
5455;BME280;2750;49.050;9.250;2023-09-19T09:15:35;98748.59;;;21.77;71.88
5455;BME280;2750;49.050;9.250;2023-09-19T09:20:38;98754.56;;;21.79;72.31
5455;BME280;2750;49.050;9.250;2023-09-19T09:25:48;98758.59;;;21.92;73.17
5455;BME280;2750;49.050;9.250;2023-09-19T09:30:50;98748.63;;;22.51;72.31
5455;BME280;2750;49.050;9.250;2023-09-19T09:35:55;98744.06;;;23.33;70.03
5455;BME280;2750;49.050;9.250;2023-09-19T09:40:59;98749.28;;;23.60;69.39
5455;BME280;2750;49.050;9.250;2023-09-19T09:46:12;98746.50;;;23.70;68.74
5455;BME280;2750;49.050;9.250;2023-09-19T09:51:33;98745.81;;;23.07;69.83
5455;BME280;2750;49.050;9.250;2023-09-19T09:56:51;98741.66;;;23.83;68.83
5455;BME280;2750;49.050;9.250;2023-09-19T10:01:53;98732.13;;;23.98;67.94
5455;BME280;2750;49.050;9.250;2023-09-19T10:06:59;98738.25;;;24.24;67.95
5455;BME280;2750;49.050;9.250;2023-09-19T10:12:06;98747.53;;;24.20;67.49
5455;BME280;2750;49.050;9.250;2023-09-19T10:17:10;98738.13;;;24.76;65.54
5455;BME280;2750;49.050;9.250;2023-09-19T10:22:14;98746.25;;;24.74;65.68
5455;BME280;2750;49.050;9.250;2023-09-19T10:27:16;98728.44;;;23.91;67.16
5455;BME280;2750;49.050;9.250;2023-09-19T10:32:21;98738.00;;;23.41;67.51
5455;BME280;2750;49.050;9.250;2023-09-19T10:37:27;98739.38;;;22.64;68.99
5455;BME280;2750;49.050;9.250;2023-09-19T10:42:33;98733.75;;;22.22;69.48
5455;BME280;2750;49.050;9.250;2023-09-19T10:47:39;98751.72;;;22.09;70.79
5455;BME280;2750;49.050;9.250;2023-09-19T10:52:42;98750.97;;;21.70;71.20
5455;BME280;2750;49.050;9.250;2023-09-19T10:57:44;98758.94;;;22.54;70.85
5455;BME280;2750;49.050;9.250;2023-09-19T11:03:16;98739.66;;;23.06;67.52
5455;BME280;2750;49.050;9.250;2023-09-19T11:08:21;98740.56;;;22.97;69.69
5455;BME280;2750;49.050;9.250;2023-09-19T11:13:30;98728.66;;;23.54;67.22
5455;BME280;2750;49.050;9.250;2023-09-19T11:18:53;98719.91;;;23.36;67.73
5455;BME280;2750;49.050;9.250;2023-09-19T11:29:40;98714.03;;;23.07;68.20
5455;BME280;2750;49.050;9.250;2023-09-19T11:34:46;98710.00;;;23.20;67.34
5455;BME280;2750;49.050;9.250;2023-09-19T11:40:05;98702.25;;;23.96;65.91
5455;BME280;2750;49.050;9.250;2023-09-19T11:46:02;98698.63;;;24.23;64.39
5455;BME280;2750;49.050;9.250;2023-09-19T11:51:12;98696.22;;;24.54;64.17
5455;BME280;2750;49.050;9.250;2023-09-19T11:56:21;98691.97;;;24.77;64.09
5455;BME280;2750;49.050;9.250;2023-09-19T12:01:27;98693.56;;;24.46;64.65
5455;BME280;2750;49.050;9.250;2023-09-19T12:06:30;98688.41;;;24.44;64.98
5455;BME280;2750;49.050;9.250;2023-09-19T12:11:33;98687.31;;;23.87;65.31
5455;BME280;2750;49.050;9.250;2023-09-19T12:16:37;98691.66;;;23.96;66.37
5455;BME280;2750;49.050;9.250;2023-09-19T12:21:39;98683.13;;;24.10;63.63
5455;BME280;2750;49.050;9.250;2023-09-19T12:26:41;98671.31;;;23.71;64.62
5455;BME280;2750;49.050;9.250;2023-09-19T12:31:52;98666.34;;;24.36;63.44
5455;BME280;2750;49.050;9.250;2023-09-19T12:37:08;98652.84;;;24.79;63.13
5455;BME280;2750;49.050;9.250;2023-09-19T12:42:13;98655.84;;;25.00;62.10
5455;BME280;2750;49.050;9.250;2023-09-19T12:47:17;98657.88;;;23.98;62.12
5455;BME280;2750;49.050;9.250;2023-09-19T12:52:20;98652.25;;;24.43;62.31
5455;BME280;2750;49.050;9.250;2023-09-19T12:57:25;98640.41;;;24.88;60.63
5455;BME280;2750;49.050;9.250;2023-09-19T13:02:28;98643.91;;;24.22;60.56
5455;BME280;2750;49.050;9.250;2023-09-19T13:07:42;98652.31;;;24.59;61.93
5455;BME280;2750;49.050;9.250;2023-09-19T13:12:49;98661.69;;;24.30;62.49
5455;BME280;2750;49.050;9.250;2023-09-19T13:17:52;98645.91;;;24.94;59.77
5455;BME280;2750;49.050;9.250;2023-09-19T13:22:55;98645.03;;;25.26;59.71
5455;BME280;2750;49.050;9.250;2023-09-19T13:27:58;98630.63;;;25.12;60.59
5455;BME280;2750;49.050;9.250;2023-09-19T13:33:06;98629.19;;;25.81;59.29
5455;BME280;2750;49.050;9.250;2023-09-19T13:38:08;98630.72;;;26.45;57.91
5455;BME280;2750;49.050;9.250;2023-09-19T13:43:11;98637.22;;;25.49;58.56
5455;BME280;2750;49.050;9.250;2023-09-19T13:48:15;98628.16;;;25.90;59.69
5455;BME280;2750;49.050;9.250;2023-09-19T13:53:19;98609.50;;;25.98;59.07
5455;BME280;2750;49.050;9.250;2023-09-19T13:58:21;98609.13;;;26.94;57.04
5455;BME280;2750;49.050;9.250;2023-09-19T14:03:25;98592.41;;;25.93;57.90
5455;BME280;2750;49.050;9.250;2023-09-19T14:08:28;98593.28;;;25.77;58.52
5455;BME280;2750;49.050;9.250;2023-09-19T14:13:30;98586.38;;;25.99;58.85
5455;BME280;2750;49.050;9.250;2023-09-19T14:18:33;98572.16;;;26.68;57.53
5455;BME280;2750;49.050;9.250;2023-09-19T14:23:35;98588.44;;;26.73;56.64
5455;BME280;2750;49.050;9.250;2023-09-19T14:28:37;98585.94;;;26.72;57.36
5455;BME280;2750;49.050;9.250;2023-09-19T14:33:41;98586.56;;;27.34;56.12
5455;BME280;2750;49.050;9.250;2023-09-19T14:38:43;98583.66;;;27.29;55.96
5455;BME280;2750;49.050;9.250;2023-09-19T14:43:44;98587.59;;;26.73;56.51
5455;BME280;2750;49.050;9.250;2023-09-19T14:48:47;98584.81;;;26.12;57.50
5455;BME280;2750;49.050;9.250;2023-09-19T14:53:49;98570.06;;;26.41;57.28
5455;BME280;2750;49.050;9.250;2023-09-19T14:58:50;98559.25;;;26.03;58.08
5455;BME280;2750;49.050;9.250;2023-09-19T15:03:53;98565.19;;;25.83;58.14
5455;BME280;2750;49.050;9.250;2023-09-19T15:08:55;98569.28;;;25.54;58.64
5455;BME280;2750;49.050;9.250;2023-09-19T15:13:58;98567.84;;;26.22;57.71
5455;BME280;2750;49.050;9.250;2023-09-19T15:19:01;98566.19;;;25.82;57.33
5455;BME280;2750;49.050;9.250;2023-09-19T15:24:03;98560.03;;;26.12;57.32
5455;BME280;2750;49.050;9.250;2023-09-19T15:29:05;98565.19;;;26.13;57.42
5455;BME280;2750;49.050;9.250;2023-09-19T15:34:09;98557.84;;;26.15;58.15
5455;BME280;2750;49.050;9.250;2023-09-19T15:39:10;98552.06;;;25.81;57.99
5455;BME280;2750;49.050;9.250;2023-09-19T15:44:12;98548.97;;;26.00;57.74
5455;BME280;2750;49.050;9.250;2023-09-19T15:49:16;98556.19;;;26.14;57.33
5455;BME280;2750;49.050;9.250;2023-09-19T15:54:18;98540.25;;;25.37;58.41
5455;BME280;2750;49.050;9.250;2023-09-19T15:59:19;98541.19;;;25.60;58.68
5455;BME280;2750;49.050;9.250;2023-09-19T16:04:22;98547.19;;;25.38;58.45
5455;BME280;2750;49.050;9.250;2023-09-19T16:09:24;98551.59;;;24.82;59.70
5455;BME280;2750;49.050;9.250;2023-09-19T16:14:25;98544.25;;;25.33;59.19
5455;BME280;2750;49.050;9.250;2023-09-19T16:19:32;98545.88;;;25.34;60.04
5455;BME280;2750;49.050;9.250;2023-09-19T16:24:34;98549.25;;;25.19;59.87
5455;BME280;2750;49.050;9.250;2023-09-19T16:29:35;98556.16;;;25.45;59.53
5455;BME280;2750;49.050;9.250;2023-09-19T16:34:38;98555.31;;;25.91;59.06
5455;BME280;2750;49.050;9.250;2023-09-19T16:39:41;98544.66;;;25.60;59.63
5455;BME280;2750;49.050;9.250;2023-09-19T16:44:43;98543.91;;;25.28;61.00
5455;BME280;2750;49.050;9.250;2023-09-19T16:49:46;98549.91;;;25.30;61.54
5455;BME280;2750;49.050;9.250;2023-09-19T16:54:47;98538.44;;;26.07;59.67
5455;BME280;2750;49.050;9.250;2023-09-19T16:59:49;98535.22;;;26.65;58.88
5455;BME280;2750;49.050;9.250;2023-09-19T17:04:52;98535.06;;;26.89;59.11
5455;BME280;2750;49.050;9.250;2023-09-19T17:09:54;98539.94;;;26.63;60.47
5455;BME280;2750;49.050;9.250;2023-09-19T17:14:55;98547.50;;;26.51;61.05
5455;BME280;2750;49.050;9.250;2023-09-19T17:19:59;98544.19;;;25.88;62.75
5455;BME280;2750;49.050;9.250;2023-09-19T17:25:00;98545.94;;;25.26;63.58
5455;BME280;2750;49.050;9.250;2023-09-19T17:30:03;98551.44;;;24.59;65.14
5455;BME280;2750;49.050;9.250;2023-09-19T17:35:07;98549.34;;;24.13;66.15
5455;BME280;2750;49.050;9.250;2023-09-19T17:40:09;98553.38;;;23.75;67.25
5455;BME280;2750;49.050;9.250;2023-09-19T17:45:12;98556.28;;;23.04;68.75
5455;BME280;2750;49.050;9.250;2023-09-19T17:50:15;98560.59;;;22.26;71.28
5455;BME280;2750;49.050;9.250;2023-09-19T17:55:17;98564.41;;;21.60;73.51
5455;BME280;2750;49.050;9.250;2023-09-19T18:00:18;98574.44;;;21.19;74.26
5455;BME280;2750;49.050;9.250;2023-09-19T18:05:22;98566.94;;;21.05;76.38
5455;BME280;2750;49.050;9.250;2023-09-19T18:10:24;98581.28;;;20.83;76.99
5455;BME280;2750;49.050;9.250;2023-09-19T18:15:26;98575.13;;;21.02;76.47
5455;BME280;2750;49.050;9.250;2023-09-19T18:20:34;98585.72;;;20.83;76.15
5455;BME280;2750;49.050;9.250;2023-09-19T18:25:38;98593.91;;;20.51;76.20
5455;BME280;2750;49.050;9.250;2023-09-19T18:30:39;98591.97;;;20.43;77.09
5455;BME280;2750;49.050;9.250;2023-09-19T18:35:42;98599.34;;;20.69;76.96
5455;BME280;2750;49.050;9.250;2023-09-19T18:40:44;98601.69;;;20.52;76.52
5455;BME280;2750;49.050;9.250;2023-09-19T18:45:54;98603.63;;;20.31;78.12
5455;BME280;2750;49.050;9.250;2023-09-19T18:50:57;98606.34;;;20.20;78.43
5455;BME280;2750;49.050;9.250;2023-09-19T18:56:05;98612.16;;;20.14;78.85
5455;BME280;2750;49.050;9.250;2023-09-19T19:01:09;98619.94;;;20.16;78.56
5455;BME280;2750;49.050;9.250;2023-09-19T19:06:13;98623.13;;;20.19;78.70
5455;BME280;2750;49.050;9.250;2023-09-19T19:11:16;98622.22;;;19.90;80.47
5455;BME280;2750;49.050;9.250;2023-09-19T19:16:20;98627.91;;;19.95;80.55
5455;BME280;2750;49.050;9.250;2023-09-19T19:21:23;98623.16;;;19.79;80.75
5455;BME280;2750;49.050;9.250;2023-09-19T19:26:24;98632.56;;;19.82;80.59
5455;BME280;2750;49.050;9.250;2023-09-19T19:31:27;98637.47;;;19.56;80.72
5455;BME280;2750;49.050;9.250;2023-09-19T19:36:31;98638.59;;;19.63;80.68
5455;BME280;2750;49.050;9.250;2023-09-19T19:41:34;98643.28;;;19.60;80.61
5455;BME280;2750;49.050;9.250;2023-09-19T19:46:38;98644.53;;;19.55;81.58
5455;BME280;2750;49.050;9.250;2023-09-19T19:51:41;98639.44;;;19.64;80.96
5455;BME280;2750;49.050;9.250;2023-09-19T19:56:45;98653.81;;;19.60;80.96
5455;BME280;2750;49.050;9.250;2023-09-19T20:01:47;98664.22;;;19.40;81.63
5455;BME280;2750;49.050;9.250;2023-09-19T20:06:51;98658.41;;;19.58;80.66
5455;BME280;2750;49.050;9.250;2023-09-19T20:11:53;98655.47;;;19.40;81.19
5455;BME280;2750;49.050;9.250;2023-09-19T20:16:56;98662.94;;;19.14;82.77
5455;BME280;2750;49.050;9.250;2023-09-19T20:22:01;98660.75;;;18.98;82.80
5455;BME280;2750;49.050;9.250;2023-09-19T20:27:06;98653.50;;;18.91;83.67
5455;BME280;2750;49.050;9.250;2023-09-19T20:32:07;98670.69;;;18.74;84.33
5455;BME280;2750;49.050;9.250;2023-09-19T20:37:10;98661.75;;;18.66;84.04
5455;BME280;2750;49.050;9.250;2023-09-19T20:42:12;98666.47;;;18.72;83.98
5455;BME280;2750;49.050;9.250;2023-09-19T20:47:13;98669.63;;;18.66;83.91
5455;BME280;2750;49.050;9.250;2023-09-19T20:52:17;98670.34;;;18.45;84.89
5455;BME280;2750;49.050;9.250;2023-09-19T20:57:18;98665.56;;;18.50;84.56
5455;BME280;2750;49.050;9.250;2023-09-19T21:02:21;98669.66;;;18.54;84.07
5455;BME280;2750;49.050;9.250;2023-09-19T21:07:24;98668.34;;;18.38;84.52
5455;BME280;2750;49.050;9.250;2023-09-19T21:12:29;98668.06;;;18.09;85.63
5455;BME280;2750;49.050;9.250;2023-09-19T21:17:30;98667.22;;;18.08;85.80
5455;BME280;2750;49.050;9.250;2023-09-19T21:22:33;98664.16;;;18.46;84.41
5455;BME280;2750;49.050;9.250;2023-09-19T21:27:36;98661.13;;;18.08;85.97
5455;BME280;2750;49.050;9.250;2023-09-19T21:32:38;98665.41;;;17.98;86.80
5455;BME280;2750;49.050;9.250;2023-09-19T21:37:41;98665.44;;;18.09;86.18
5455;BME280;2750;49.050;9.250;2023-09-19T21:42:42;98668.72;;;18.22;85.54
5455;BME280;2750;49.050;9.250;2023-09-19T21:47:44;98655.91;;;18.40;85.23
5455;BME280;2750;49.050;9.250;2023-09-19T21:52:47;98662.25;;;18.37;84.80
5455;BME280;2750;49.050;9.250;2023-09-19T21:57:48;98663.44;;;18.87;83.01
5455;BME280;2750;49.050;9.250;2023-09-19T22:02:50;98659.16;;;19.07;81.79
5455;BME280;2750;49.050;9.250;2023-09-19T22:07:54;98673.91;;;18.98;82.33
5455;BME280;2750;49.050;9.250;2023-09-19T22:12:56;98682.41;;;18.70;83.23
5455;BME280;2750;49.050;9.250;2023-09-19T22:17:59;98679.59;;;18.83;81.65
5455;BME280;2750;49.050;9.250;2023-09-19T22:23:06;98670.75;;;18.84;81.98
5455;BME280;2750;49.050;9.250;2023-09-19T22:28:13;98683.97;;;18.61;83.01
5455;BME280;2750;49.050;9.250;2023-09-19T22:33:16;98683.97;;;18.50;83.68
5455;BME280;2750;49.050;9.250;2023-09-19T22:38:19;98687.56;;;18.49;83.60
5455;BME280;2750;49.050;9.250;2023-09-19T22:43:21;98683.41;;;18.25;84.86
5455;BME280;2750;49.050;9.250;2023-09-19T22:48:26;98685.19;;;18.46;83.64
5455;BME280;2750;49.050;9.250;2023-09-19T22:53:31;98691.56;;;18.10;85.11
5455;BME280;2750;49.050;9.250;2023-09-19T22:58:38;98684.78;;;17.97;85.07
5455;BME280;2750;49.050;9.250;2023-09-19T23:03:40;98688.22;;;17.86;85.58
5455;BME280;2750;49.050;9.250;2023-09-19T23:08:44;98684.75;;;18.08;84.97
5455;BME280;2750;49.050;9.250;2023-09-19T23:13:46;98700.28;;;18.00;84.82
5455;BME280;2750;49.050;9.250;2023-09-19T23:18:48;98695.97;;;18.10;84.77
5455;BME280;2750;49.050;9.250;2023-09-19T23:23:53;98686.78;;;18.04;84.29
5455;BME280;2750;49.050;9.250;2023-09-19T23:28:55;98678.06;;;18.15;83.66
5455;BME280;2750;49.050;9.250;2023-09-19T23:33:57;98684.50;;;18.11;83.99
5455;BME280;2750;49.050;9.250;2023-09-19T23:39:01;98679.72;;;17.94;84.45
5455;BME280;2750;49.050;9.250;2023-09-19T23:44:05;98679.72;;;17.94;84.51
5455;BME280;2750;49.050;9.250;2023-09-19T23:49:09;98678.53;;;17.87;84.55
5455;BME280;2750;49.050;9.250;2023-09-19T23:54:12;98685.59;;;17.75;85.13
5455;BME280;2750;49.050;9.250;2023-09-19T23:59:21;98677.56;;;17.54;86.22
